Eureka, Nunavut

6:34 AM CDT on May 23, 2017 (GMT -0500)
Eureka | | Change Station

Elev 33 ft 79.98 °N, 85.93 °W | Updated 12 minutes ago

Snow
Snow
28 °F
Feels Like 22 °F
N
6
Wind Variable Wind from SSE

Today
High -- | Low -- °F
--% Chance of Precip.
Yesterday
High -- | Low -- °F
Precip. -- in
Pressure 29.84 in
Visibility 2.0 miles
Clouds Overcast 2100 ft
Windchill 22 °F
Dew Point 27 °F
Humidity 93%
Rainfall 0.00 in
Snow Depth Not available.
6:00 PM 6:00 PM
Waning Crescent, 8% visible
SPECI CWEU 231122Z 15005KT 2SM -SN BR OVC021 M02/M03 A2983 RMK SC8 SLP103
Pressure 29.84 in
Visibility 2.0 miles
Clouds Overcast 2100 ft
Windchill 22 °F
Dew Point 27 °F
Humidity 93%
Rainfall 0.00 in
Snow Depth Not available.
6:00 PM 6:00 PM
Waning Crescent, 8% visible
SPECI CWEU 231122Z 15005KT 2SM -SN BR OVC021 M02/M03 A2983 RMK SC8 SLP103

Get Severe Weather Alerts

Thanks for signing up!

Be on the lookout for a verification email in your inbox.

You'll start receiving the daily forecast at 6 AM.

×

10-Day Weather Forecast

No radar image for this location.
×

Almanac

Astronomy

May. 23, 2017 Rise Set
Actual Time
Civil Twilight
Nautical Twilight
Astronomical Twilight
Moon
Length of Visible Light
Length of Day
Tomorrow will be .
, % of the Moon is Illuminated

Today's Extremes

Country Highs Country Lows

Community

WunderPhotos

Category 6

Welcome to Category 6. This is the collective home for Weather Underground's featured writeups by Dr. Jeff Masters (right), Bob Henson (left), Chris Burt, and other regular contributors.

Nearby

Air Quality

  Air Quality AQ Index Pollutant
Not available.

Snow Depth

Station Depth Elevation

Earthquake Activity

City Distance Mag. Time & Date
Minimum magnitude displayed is 2.5.

Coastal Water Temperatures

Place Temperature

Stations

Nearby Weather Stations

Station Location Temp. Windchill Dew Point Humidity Wind Precip. Elev Updated Type
                   

Watches & Warnings

There are currently no watches in effect.